AirNav   Air Wisconsin pilot careers
 
 697 users online  

36S Happy Camp Airport
Happy Camp, California, USA


FAA INFORMATION EFFECTIVE 09 NOVEMBER 2017

Location

FAA Identifier: 36S
Lat/Long: 41-47-26.4460N / 123-23-20.2000W
41-47.440767N / 123-23.336667W
41.7906794 / -123.3889444
(estimated)
Elevation: 1209 ft. / 368.5 m (surveyed)
Variation: 18E (1985)
Time zone: UTC -8 (UTC -7 during Daylight Saving Time)
Zip code: 96039

Airport Operations

Airport use: Open to the public
Activation date: 10/1951
Control tower: no
ARTCC: SEATTLE CENTER
FSS: RANCHO MURIETA FLIGHT SERVICE STATION
NOTAMs facility: RIU (NOTAM-D service available)
Attendance: UNATNDD
Pattern altitude: 2209 ft. MSL
Wind indicator: yes
Segmented circle: yes

Airport Communications

CTAF: 122.9

Nearby radio navigation aids

VOR radial/distance  VOR name  Freq  Var
FJSr289/33.2FORT JONES VOR/DME109.6019E
CECr075/38.1CRESCENT CITY VORTAC109.0014E

Airport Services

Parking: tiedowns
Airframe service: NONE
Powerplant service: NONE
Bottled oxygen: NONE
Bulk oxygen: NONE

Runway Information

Runway 4/22

Dimensions: 3000 x 50 ft. / 914 x 15 m
Surface: asphalt, in fair condition
Weight bearing capacity: 
Single wheel: 30.0
RUNWAY 4  RUNWAY 22
Latitude: 41-47.298167N41-47.563167N
Longitude: 123-23.608667W123-23.051333W
Traffic pattern: rightleft
Markings: basic, in fair conditionbasic, in fair condition
Runway end identifier lights: nono
Obstructions: 25 ft. tree, 500 ft. from runway, 120 ft. left of centerline, 12:1 slope to clear
RWY 04 HAS 3 FT FENCE O FEET FROM RWY END AND 80 FEET L.
10 ft. brush, 200 ft. from runway, 125 ft. right of centerline
RY 22 HAS 8 FT SHRUB 0 FEET FM RY END AND 115 FT RIGHT.

Airport Ownership and Management from official FAA records

Ownership: Publicly-owned
Owner: U.S. FOREST SERVICE
63822 HIGHWAY 96
HAPPY CAMP, CA 96039-0377
Phone 530-493-1730
OPERD/MAINTD BYCOUNTY OF SISKIYOU COUNTY.
Manager: MELISSA CUMMINS
190 GREENHORN ROAD
YREKA, CA 96097
Phone (530) 842-8220
DIRECTOR OF AIRPORTS OFFICE IN YREKA.

Airport Operational Statistics

Aircraft operations: 150/year *
100% transient general aviation
* for 12-month period ending 31 December 2016

Additional Remarks

E94 US FOREST SERVICE.
RWY 22 HAS +35' TREES 600' FROM THLD 125' EITHER SIDE OF CNTRLN.
A93 US FOREST SVC MANS HELIPORT MAY THROUGH SEP.

Instrument Procedures

There are no published instrument procedures at 36S.

Some nearby airports with instrument procedures:

KCEC - Jack Mc Namara Field Airport (38 nm W)
KSIY - Siskiyou County Airport (41 nm E)
KMFR - Rogue Valley International - Medford Airport (42 nm NE)
3S8 - Grants Pass Airport (43 nm N)
O46 - Weed Airport (46 nm SE)
 
Loc | Ops | Rwys | IFR | FBO | Links
Com | Nav | Svcs | Stats | Notes


 
Area around 36S (Happy Camp Airport)
 
Road maps at: MapQuest Bing Google
 
Aerial photo
WARNING: Photo may not be current or correct
Aerial photo of 36S (Happy Camp Airport)
Do you have a better or more recent aerial photo of Happy Camp Airport that you would like to share? If so, please send us your photo.

 
Sectional chart

 
Airport distance calculator
Flying to Happy Camp Airport? Find the distance to fly.

From to 36S

Sunrise and sunset
Times for 23-Nov-2017
 Local
(UTC-8)
 Zulu
(UTC)
Morning civil twilight06:4314:43
Sunrise07:1415:14
Sunset16:4600:46
Evening civil twilight17:1701:17

Current date and time
Zulu (UTC)  23-Nov-2017 19:03:10
Local (UTC-8)  23-Nov-2017 11:03:10
 
METAR
3S4 
23nm NW 
SuperAWOS
231755Z AUTO 17005KT 10SM 17/17 A3009
KCEC 
37nm W 
231856Z AUTO 19010KT 2 1/2SM BR OVC002 14/14 A3013 RMK AO2 RAE08 SLP202 P0000 T01390139
S03 
40nm NE 
SuperAWOS
231855Z AUTO 06007KT 10SM 20/13 A3009
KSIY 
41nm E 
231853Z AUTO 06005KT 10SM OVC065 14/10 A3013 RMK AO2 SLP207 T01390100
KMFR 
42nm NE 
231853Z 31005KT 10SM R14/2600VP6000FT BKN075 BKN090 17/14 A3006 RMK AO2 SLP175 T01670144
3S8 
43nm N 
SuperAWOS
231755Z AUTO 14004KT 10SM 17/16 A3010
KBOK 
44nm NW 
231856Z AUTO 16005KT M1/4SM -RA FG OVC003 13/13 A3013 RMK AO2 SLP217 P0001 T01330133
TAF
KCEC 
37nm W 
231755Z 2318/2418 17012G20KT 3SM -RA BR OVC004 TEMPO 2318/2321 1 1/2SM -RA BR FM240100 18008KT 4SM BR VCSH OVC005 FM240600 32004KT 4SM BR OVC005 FM241400 07004KT 4SM BR OVC003 TEMPO 2414/2417 2SM BR OVC002
KMFR 
42nm NE 
231738Z 2318/2418 29005KT P6SM VCSH SCT020 SCT040 FM232300 32005KT P6SM -RA SCT020 OVC040 FM240400 32006KT P6SM -RA SCT020 OVC030 FM240600 32005KT P6SM -RA OVC015 FM240900 32005KT P6SM OVC007
NOTAMs
Click for the latest NOTAMs
NOTAMs are issued by the DoD/FAA and will open in a separate window not controlled by AirNav.

 

 
 

Would you like to see your business listed on this page?

 If your business provides an interesting product or service to pilots, flight crews, aircraft, or users of the Happy Camp Airport, you should consider listing it here.  To start the listing process, click on the button below
 
Add a business
 

Other Pages about Happy Camp Airport

Update a link
 
Copyright © AirNav, LLC. All rights reserved. Privacy Policy  Contact